sensor_id;sensor_type;location;lat;lon;timestamp;pressure;altitude;pressure_sealevel;temperature;humidity
16664;BME280;8445;51.270;9.434;2023-03-14T00:02:25;97138.78;;;9.02;79.19
16664;BME280;8445;51.270;9.434;2023-03-14T00:04:54;97142.72;;;8.98;78.95
16664;BME280;8445;51.270;9.434;2023-03-14T00:07:22;97159.22;;;9.00;79.70
16664;BME280;8445;51.270;9.434;2023-03-14T00:09:50;97165.47;;;8.99;79.39
16664;BME280;8445;51.270;9.434;2023-03-14T00:12:16;97184.13;;;9.06;79.12
16664;BME280;8445;51.270;9.434;2023-03-14T00:14:41;97199.44;;;9.02;79.18
16664;BME280;8445;51.270;9.434;2023-03-14T00:17:08;97212.63;;;9.02;79.46
16664;BME280;8445;51.270;9.434;2023-03-14T00:19:41;97232.75;;;9.03;79.61
16664;BME280;8445;51.270;9.434;2023-03-14T00:22:09;97229.28;;;9.03;79.20
16664;BME280;8445;51.270;9.434;2023-03-14T00:24:34;97230.44;;;9.09;80.10
16664;BME280;8445;51.270;9.434;2023-03-14T00:27:00;97266.06;;;9.13;79.22
16664;BME280;8445;51.270;9.434;2023-03-14T00:29:28;97276.97;;;9.18;80.79
16664;BME280;8445;51.270;9.434;2023-03-14T00:31:55;97273.41;;;9.36;79.42
16664;BME280;8445;51.270;9.434;2023-03-14T00:34:23;97275.41;;;9.50;80.05
16664;BME280;8445;51.270;9.434;2023-03-14T00:36:55;97264.84;;;9.58;80.01
16664;BME280;8445;51.270;9.434;2023-03-14T00:39:21;97265.06;;;9.65;79.69
16664;BME280;8445;51.270;9.434;2023-03-14T00:41:49;97266.53;;;9.68;79.41
16664;BME280;8445;51.270;9.434;2023-03-14T00:44:17;97262.38;;;9.73;79.65
16664;BME280;8445;51.270;9.434;2023-03-14T00:46:43;97253.81;;;9.79;79.02
16664;BME280;8445;51.270;9.434;2023-03-14T00:49:08;97236.84;;;9.82;79.29
16664;BME280;8445;51.270;9.434;2023-03-14T00:51:33;97229.56;;;9.84;78.95
16664;BME280;8445;51.270;9.434;2023-03-14T00:54:01;97236.84;;;9.82;79.24
16664;BME280;8445;51.270;9.434;2023-03-14T00:56:27;97237.50;;;9.84;78.92
16664;BME280;8445;51.270;9.434;2023-03-14T00:58:56;97237.16;;;9.79;80.31
16664;BME280;8445;51.270;9.434;2023-03-14T01:01:22;97247.06;;;9.85;79.24
16664;BME280;8445;51.270;9.434;2023-03-14T01:03:54;97255.66;;;9.87;79.68
16664;BME280;8445;51.270;9.434;2023-03-14T01:06:27;97248.06;;;9.92;79.67
16664;BME280;8445;51.270;9.434;2023-03-14T01:08:54;97232.22;;;9.92;78.99
16664;BME280;8445;51.270;9.434;2023-03-14T01:11:25;97225.63;;;9.88;79.03
16664;BME280;8445;51.270;9.434;2023-03-14T01:13:53;97231.88;;;9.79;79.68
16664;BME280;8445;51.270;9.434;2023-03-14T01:16:20;97237.97;;;9.79;79.37
16664;BME280;8445;51.270;9.434;2023-03-14T01:18:46;97229.41;;;9.77;79.30
16664;BME280;8445;51.270;9.434;2023-03-14T01:21:24;97245.41;;;9.84;79.50
16664;BME280;8445;51.270;9.434;2023-03-14T01:23:51;97238.63;;;9.90;79.32
16664;BME280;8445;51.270;9.434;2023-03-14T01:26:19;97240.81;;;9.94;79.60
16664;BME280;8445;51.270;9.434;2023-03-14T01:28:49;97233.22;;;10.00;79.62
16664;BME280;8445;51.270;9.434;2023-03-14T01:31:17;97213.38;;;10.04;79.46
16664;BME280;8445;51.270;9.434;2023-03-14T01:33:43;97225.56;;;10.13;79.52
16664;BME280;8445;51.270;9.434;2023-03-14T01:36:14;97215.34;;;10.18;79.19
16664;BME280;8445;51.270;9.434;2023-03-14T01:38:42;97190.56;;;10.19;79.49
16664;BME280;8445;51.270;9.434;2023-03-14T01:41:14;97193.22;;;10.19;79.43
16664;BME280;8445;51.270;9.434;2023-03-14T01:43:42;97176.38;;;10.20;79.12
16664;BME280;8445;51.270;9.434;2023-03-14T01:46:32;97172.72;;;10.21;79.47
16664;BME280;8445;51.270;9.434;2023-03-14T01:49:22;97179.66;;;10.22;79.65
16664;BME280;8445;51.270;9.434;2023-03-14T01:52:10;97170.59;;;10.17;79.87
16664;BME280;8445;51.270;9.434;2023-03-14T01:54:46;97166.31;;;10.24;79.31
16664;BME280;8445;51.270;9.434;2023-03-14T01:57:22;97161.00;;;10.24;79.47
16664;BME280;8445;51.270;9.434;2023-03-14T01:59:55;97169.94;;;10.23;79.13
16664;BME280;8445;51.270;9.434;2023-03-14T02:02:26;97166.78;;;10.19;79.38
16664;BME280;8445;51.270;9.434;2023-03-14T02:04:55;97176.56;;;10.19;79.18
16664;BME280;8445;51.270;9.434;2023-03-14T02:07:35;97164.16;;;10.19;79.14
16664;BME280;8445;51.270;9.434;2023-03-14T02:10:11;97156.56;;;10.16;79.07
16664;BME280;8445;51.270;9.434;2023-03-14T02:12:37;97162.84;;;10.15;78.91
16664;BME280;8445;51.270;9.434;2023-03-14T02:15:12;97172.59;;;10.15;79.05
16664;BME280;8445;51.270;9.434;2023-03-14T02:17:59;97183.31;;;10.21;79.01
16664;BME280;8445;51.270;9.434;2023-03-14T02:20:51;97187.59;;;10.22;78.99
16664;BME280;8445;51.270;9.434;2023-03-14T02:23:43;97183.81;;;10.25;79.33
16664;BME280;8445;51.270;9.434;2023-03-14T02:28:46;97155.69;;;10.32;78.85
16664;BME280;8445;51.270;9.434;2023-03-14T02:31:12;97160.97;;;10.32;78.75
16664;BME280;8445;51.270;9.434;2023-03-14T02:33:38;97151.38;;;10.31;78.95
16664;BME280;8445;51.270;9.434;2023-03-14T02:36:07;97144.97;;;10.34;79.02
16664;BME280;8445;51.270;9.434;2023-03-14T02:38:58;97136.03;;;10.35;79.10
16664;BME280;8445;51.270;9.434;2023-03-14T02:41:29;97142.47;;;10.32;78.97
16664;BME280;8445;51.270;9.434;2023-03-14T02:44:02;97126.78;;;10.31;79.17
16664;BME280;8445;51.270;9.434;2023-03-14T02:46:27;97130.25;;;10.31;79.05
16664;BME280;8445;51.270;9.434;2023-03-14T02:48:56;97135.38;;;10.33;78.96
16664;BME280;8445;51.270;9.434;2023-03-14T02:51:23;97109.63;;;10.27;79.27
16664;BME280;8445;51.270;9.434;2023-03-14T02:53:49;97107.84;;;10.27;79.09
16664;BME280;8445;51.270;9.434;2023-03-14T02:56:15;97103.22;;;10.21;79.19
16664;BME280;8445;51.270;9.434;2023-03-14T02:58:40;97116.94;;;10.16;80.12
16664;BME280;8445;51.270;9.434;2023-03-14T03:01:25;97105.22;;;10.19;79.48
16664;BME280;8445;51.270;9.434;2023-03-14T03:03:50;97094.16;;;10.15;79.72
16664;BME280;8445;51.270;9.434;2023-03-14T03:06:18;97098.78;;;10.05;79.70
16664;BME280;8445;51.270;9.434;2023-03-14T03:08:44;97093.84;;;10.02;79.97
16664;BME280;8445;51.270;9.434;2023-03-14T03:11:09;97077.19;;;10.01;80.02
16664;BME280;8445;51.270;9.434;2023-03-14T03:13:35;97086.13;;;10.00;79.75
16664;BME280;8445;51.270;9.434;2023-03-14T03:16:02;97081.66;;;10.01;79.74
16664;BME280;8445;51.270;9.434;2023-03-14T03:18:27;97072.72;;;10.02;79.73
16664;BME280;8445;51.270;9.434;2023-03-14T03:20:53;97077.31;;;10.08;79.69
16664;BME280;8445;51.270;9.434;2023-03-14T03:23:18;97080.28;;;10.13;79.74
16664;BME280;8445;51.270;9.434;2023-03-14T03:25:48;97070.38;;;10.15;79.99
16664;BME280;8445;51.270;9.434;2023-03-14T03:28:14;97070.91;;;10.11;79.52
16664;BME280;8445;51.270;9.434;2023-03-14T03:30:40;97067.81;;;9.99;79.47
16664;BME280;8445;51.270;9.434;2023-03-14T03:33:06;97082.84;;;9.82;80.15
16664;BME280;8445;51.270;9.434;2023-03-14T03:35:33;97078.91;;;9.77;79.16
16664;BME280;8445;51.270;9.434;2023-03-14T03:37:59;97072.66;;;9.70;79.04
16664;BME280;8445;51.270;9.434;2023-03-14T03:40:26;97067.72;;;9.67;79.51
16664;BME280;8445;51.270;9.434;2023-03-14T03:42:52;97075.78;;;9.74;79.63
16664;BME280;8445;51.270;9.434;2023-03-14T03:45:17;97070.50;;;9.74;79.27
16664;BME280;8445;51.270;9.434;2023-03-14T03:47:50;97081.72;;;9.76;80.18
16664;BME280;8445;51.270;9.434;2023-03-14T03:50:16;97073.13;;;9.82;79.50
16664;BME280;8445;51.270;9.434;2023-03-14T03:52:41;97069.50;;;9.83;79.56
16664;BME280;8445;51.270;9.434;2023-03-14T03:55:07;97073.25;;;9.89;79.85
16664;BME280;8445;51.270;9.434;2023-03-14T03:57:32;97074.09;;;9.89;80.07
16664;BME280;8445;51.270;9.434;2023-03-14T03:59:58;97085.78;;;9.95;80.35
16664;BME280;8445;51.270;9.434;2023-03-14T04:02:23;97092.56;;;9.98;79.75
16664;BME280;8445;51.270;9.434;2023-03-14T04:04:50;97082.81;;;9.98;80.37
16664;BME280;8445;51.270;9.434;2023-03-14T04:07:16;97084.31;;;10.01;80.17
16664;BME280;8445;51.270;9.434;2023-03-14T04:09:43;97071.44;;;9.98;80.19
16664;BME280;8445;51.270;9.434;2023-03-14T04:12:26;97067.97;;;9.97;80.59
16664;BME280;8445;51.270;9.434;2023-03-14T04:14:58;97069.47;;;10.00;80.53
16664;BME280;8445;51.270;9.434;2023-03-14T04:17:24;97047.03;;;9.96;80.92
16664;BME280;8445;51.270;9.434;2023-03-14T04:19:49;97052.63;;;9.92;81.31
16664;BME280;8445;51.270;9.434;2023-03-14T04:22:18;97057.91;;;9.92;80.88
16664;BME280;8445;51.270;9.434;2023-03-14T04:24:47;97048.03;;;9.86;81.39
16664;BME280;8445;51.270;9.434;2023-03-14T04:27:12;97052.16;;;9.81;82.20
16664;BME280;8445;51.270;9.434;2023-03-14T04:29:41;97050.69;;;9.78;81.25
16664;BME280;8445;51.270;9.434;2023-03-14T04:32:07;97026.63;;;9.73;81.61
16664;BME280;8445;51.270;9.434;2023-03-14T04:34:33;97035.06;;;9.68;81.52
16664;BME280;8445;51.270;9.434;2023-03-14T04:36:59;97029.13;;;9.66;80.83
16664;BME280;8445;51.270;9.434;2023-03-14T04:39:34;97031.91;;;9.64;80.68
16664;BME280;8445;51.270;9.434;2023-03-14T04:42:07;97035.09;;;9.52;80.50
16664;BME280;8445;51.270;9.434;2023-03-14T04:44:35;97022.75;;;9.36;80.44
16664;BME280;8445;51.270;9.434;2023-03-14T04:47:01;97019.47;;;9.25;80.54
16664;BME280;8445;51.270;9.434;2023-03-14T04:49:26;97023.91;;;9.16;79.85
16664;BME280;8445;51.270;9.434;2023-03-14T04:51:52;97026.22;;;9.11;80.40
16664;BME280;8445;51.270;9.434;2023-03-14T04:54:18;97021.09;;;9.01;79.79
16664;BME280;8445;51.270;9.434;2023-03-14T04:56:47;97015.81;;;8.93;80.07
16664;BME280;8445;51.270;9.434;2023-03-14T04:59:13;97022.94;;;8.93;79.87
16664;BME280;8445;51.270;9.434;2023-03-14T05:01:40;97029.84;;;8.85;79.57
16664;BME280;8445;51.270;9.434;2023-03-14T05:04:25;97032.31;;;8.79;79.71
16664;BME280;8445;51.270;9.434;2023-03-14T05:07:13;97049.78;;;8.80;79.69
16664;BME280;8445;51.270;9.434;2023-03-14T05:10:09;97048.13;;;8.87;80.01
16664;BME280;8445;51.270;9.434;2023-03-14T05:12:53;97042.38;;;9.00;80.21
16664;BME280;8445;51.270;9.434;2023-03-14T05:15:39;97046.50;;;9.19;80.36
16664;BME280;8445;51.270;9.434;2023-03-14T05:18:23;97051.44;;;9.30;79.90
16664;BME280;8445;51.270;9.434;2023-03-14T05:20:58;97055.06;;;9.38;79.56
16664;BME280;8445;51.270;9.434;2023-03-14T05:23:42;97053.38;;;9.45;79.71
16664;BME280;8445;51.270;9.434;2023-03-14T05:26:27;97043.66;;;9.54;79.55
16664;BME280;8445;51.270;9.434;2023-03-14T05:29:12;97046.94;;;9.56;79.75
16664;BME280;8445;51.270;9.434;2023-03-14T05:31:56;97036.53;;;9.62;79.47
16664;BME280;8445;51.270;9.434;2023-03-14T05:34:40;97034.56;;;9.64;79.19
16664;BME280;8445;51.270;9.434;2023-03-14T05:37:31;97031.75;;;9.66;78.89
16664;BME280;8445;51.270;9.434;2023-03-14T05:40:15;97035.06;;;9.68;79.00
16664;BME280;8445;51.270;9.434;2023-03-14T05:43:07;97022.66;;;9.69;78.95
16664;BME280;8445;51.270;9.434;2023-03-14T05:45:48;97031.91;;;9.73;79.33
16664;BME280;8445;51.270;9.434;2023-03-14T05:48:32;97039.47;;;9.76;79.33
16664;BME280;8445;51.270;9.434;2023-03-14T05:51:17;97044.09;;;9.74;79.16
16664;BME280;8445;51.270;9.434;2023-03-14T05:53:49;97039.28;;;9.77;79.38
16664;BME280;8445;51.270;9.434;2023-03-14T05:56:30;97044.41;;;9.79;79.35
16664;BME280;8445;51.270;9.434;2023-03-14T05:59:07;97042.44;;;9.81;79.08
16664;BME280;8445;51.270;9.434;2023-03-14T06:01:55;97048.19;;;9.85;79.04
16664;BME280;8445;51.270;9.434;2023-03-14T06:04:24;97042.75;;;9.86;78.96
16664;BME280;8445;51.270;9.434;2023-03-14T06:06:54;97048.03;;;9.86;79.07
16664;BME280;8445;51.270;9.434;2023-03-14T06:09:20;97037.47;;;9.86;79.30
16664;BME280;8445;51.270;9.434;2023-03-14T06:11:48;97037.94;;;9.90;79.21
16664;BME280;8445;51.270;9.434;2023-03-14T06:14:14;97033.16;;;9.93;79.13
16664;BME280;8445;51.270;9.434;2023-03-14T06:16:43;97024.72;;;9.98;78.97
16664;BME280;8445;51.270;9.434;2023-03-14T06:19:09;97031.63;;;9.99;78.75
16664;BME280;8445;51.270;9.434;2023-03-14T06:21:36;97017.44;;;10.00;78.70
16664;BME280;8445;51.270;9.434;2023-03-14T06:24:01;97027.19;;;10.00;78.88
16664;BME280;8445;51.270;9.434;2023-03-14T06:26:32;97016.91;;;10.05;78.80
16664;BME280;8445;51.270;9.434;2023-03-14T06:28:58;97020.53;;;10.12;79.10
16664;BME280;8445;51.270;9.434;2023-03-14T06:31:31;97012.41;;;10.22;79.18
16664;BME280;8445;51.270;9.434;2023-03-14T06:34:00;97014.81;;;10.32;79.16
16664;BME280;8445;51.270;9.434;2023-03-14T06:36:29;97005.91;;;10.33;79.00
16664;BME280;8445;51.270;9.434;2023-03-14T06:38:55;97012.47;;;10.37;79.30
16664;BME280;8445;51.270;9.434;2023-03-14T06:41:21;97013.81;;;10.41;79.09
16664;BME280;8445;51.270;9.434;2023-03-14T06:43:49;97006.19;;;10.46;79.22
16664;BME280;8445;51.270;9.434;2023-03-14T06:46:16;97006.66;;;10.50;79.29
16664;BME280;8445;51.270;9.434;2023-03-14T06:48:42;96998.50;;;10.60;79.60
16664;BME280;8445;51.270;9.434;2023-03-14T06:51:08;97006.34;;;10.68;79.47
16664;BME280;8445;51.270;9.434;2023-03-14T06:53:36;96998.56;;;10.75;79.16
16664;BME280;8445;51.270;9.434;2023-03-14T06:56:02;97005.31;;;10.77;79.17
16664;BME280;8445;51.270;9.434;2023-03-14T06:58:29;97004.31;;;10.78;78.92
16664;BME280;8445;51.270;9.434;2023-03-14T07:00:55;97000.16;;;10.84;79.30
16664;BME280;8445;51.270;9.434;2023-03-14T07:03:25;97000.59;;;10.88;79.26
16664;BME280;8445;51.270;9.434;2023-03-14T07:05:53;96993.59;;;10.95;79.17
16664;BME280;8445;51.270;9.434;2023-03-14T07:08:18;96998.75;;;11.11;79.19
16664;BME280;8445;51.270;9.434;2023-03-14T07:10:44;96994.84;;;11.22;79.62
16664;BME280;8445;51.270;9.434;2023-03-14T07:13:10;96992.94;;;11.31;79.48
16664;BME280;8445;51.270;9.434;2023-03-14T07:15:45;96992.34;;;11.44;79.23
16664;BME280;8445;51.270;9.434;2023-03-14T07:18:11;97005.84;;;11.49;78.91
16664;BME280;8445;51.270;9.434;2023-03-14T07:20:36;96992.44;;;11.51;78.30
16664;BME280;8445;51.270;9.434;2023-03-14T07:23:03;97002.09;;;11.44;78.11
16664;BME280;8445;51.270;9.434;2023-03-14T07:25:36;96995.00;;;11.59;79.17
16664;BME280;8445;51.270;9.434;2023-03-14T07:28:02;96995.25;;;11.79;79.82
16664;BME280;8445;51.270;9.434;2023-03-14T07:30:28;96992.06;;;11.99;79.21
16664;BME280;8445;51.270;9.434;2023-03-14T07:32:54;96991.09;;;12.00;78.87
16664;BME280;8445;51.270;9.434;2023-03-14T07:35:22;96994.25;;;11.95;78.21
16664;BME280;8445;51.270;9.434;2023-03-14T07:37:48;96990.59;;;11.96;78.72
16664;BME280;8445;51.270;9.434;2023-03-14T07:40:15;96994.25;;;11.95;78.18
16664;BME280;8445;51.270;9.434;2023-03-14T07:42:44;96986.13;;;11.97;77.68
16664;BME280;8445;51.270;9.434;2023-03-14T07:45:35;96990.25;;;11.99;78.81
16664;BME280;8445;51.270;9.434;2023-03-14T07:48:01;96992.22;;;11.97;78.65
16664;BME280;8445;51.270;9.434;2023-03-14T07:50:27;96995.66;;;12.06;78.88
16664;BME280;8445;51.270;9.434;2023-03-14T07:52:54;97003.13;;;12.03;78.40
16664;BME280;8445;51.270;9.434;2023-03-14T07:55:20;97002.56;;;12.07;78.62
16664;BME280;8445;51.270;9.434;2023-03-14T07:57:46;97005.03;;;12.09;79.20
16664;BME280;8445;51.270;9.434;2023-03-14T08:00:11;96999.00;;;12.15;78.96
16664;BME280;8445;51.270;9.434;2023-03-14T08:02:40;97005.31;;;12.14;78.78
16664;BME280;8445;51.270;9.434;2023-03-14T08:05:06;97006.13;;;12.14;78.79
16664;BME280;8445;51.270;9.434;2023-03-14T08:07:31;97005.31;;;12.14;78.25
16664;BME280;8445;51.270;9.434;2023-03-14T08:09:57;97011.25;;;12.16;78.51
16664;BME280;8445;51.270;9.434;2023-03-14T08:12:22;97000.06;;;12.21;78.45
16664;BME280;8445;51.270;9.434;2023-03-14T08:14:48;97001.56;;;12.23;78.23
16664;BME280;8445;51.270;9.434;2023-03-14T08:17:13;97015.81;;;12.22;77.26
16664;BME280;8445;51.270;9.434;2023-03-14T08:19:41;97012.88;;;12.17;77.10
16664;BME280;8445;51.270;9.434;2023-03-14T08:22:06;97006.25;;;12.06;78.00
16664;BME280;8445;51.270;9.434;2023-03-14T08:24:32;97016.84;;;12.06;77.76
16664;BME280;8445;51.270;9.434;2023-03-14T08:26:57;97007.94;;;11.99;77.29
16664;BME280;8445;51.270;9.434;2023-03-14T08:29:23;97019.66;;;12.05;78.00
16664;BME280;8445;51.270;9.434;2023-03-14T08:31:48;97014.38;;;12.05;77.74
16664;BME280;8445;51.270;9.434;2023-03-14T08:34:15;97014.91;;;12.15;77.85
16664;BME280;8445;51.270;9.434;2023-03-14T08:36:40;97013.69;;;12.33;78.31
16664;BME280;8445;51.270;9.434;2023-03-14T08:39:06;97014.97;;;12.58;78.83
16664;BME280;8445;51.270;9.434;2023-03-14T08:41:33;97009.44;;;12.75;78.34
16664;BME280;8445;51.270;9.434;2023-03-14T08:44:00;97020.31;;;12.80;77.10
16664;BME280;8445;51.270;9.434;2023-03-14T08:46:25;97031.22;;;12.92;77.78
16664;BME280;8445;51.270;9.434;2023-03-14T08:48:51;97024.97;;;13.00;77.67
16664;BME280;8445;51.270;9.434;2023-03-14T08:51:16;97019.16;;;13.11;77.76
16664;BME280;8445;51.270;9.434;2023-03-14T08:53:42;97026.81;;;13.21;77.23
16664;BME280;8445;51.270;9.434;2023-03-14T08:56:08;97029.91;;;13.31;76.69
16664;BME280;8445;51.270;9.434;2023-03-14T08:58:36;97029.16;;;13.38;76.87
16664;BME280;8445;51.270;9.434;2023-03-14T09:01:08;97026.03;;;13.56;76.99
16664;BME280;8445;51.270;9.434;2023-03-14T09:03:34;97024.94;;;13.72;76.06
16664;BME280;8445;51.270;9.434;2023-03-14T09:06:07;97026.84;;;13.85;75.62
16664;BME280;8445;51.270;9.434;2023-03-14T09:08:34;97033.09;;;14.05;77.24
16664;BME280;8445;51.270;9.434;2023-03-14T09:10:59;97030.88;;;14.16;76.92
16664;BME280;8445;51.270;9.434;2023-03-14T09:13:25;97026.00;;;14.19;76.08
16664;BME280;8445;51.270;9.434;2023-03-14T09:15:54;97029.84;;;14.17;76.18
16664;BME280;8445;51.270;9.434;2023-03-14T09:18:20;97034.16;;;14.18;75.90
16664;BME280;8445;51.270;9.434;2023-03-14T09:20:46;97022.69;;;14.11;74.81
16664;BME280;8445;51.270;9.434;2023-03-14T09:23:11;97032.50;;;14.10;75.99
16664;BME280;8445;51.270;9.434;2023-03-14T09:25:37;97033.09;;;14.05;76.41
16664;BME280;8445;51.270;9.434;2023-03-14T09:28:03;97036.06;;;13.89;75.50
16664;BME280;8445;51.270;9.434;2023-03-14T09:30:28;97042.47;;;13.66;74.89
16664;BME280;8445;51.270;9.434;2023-03-14T09:32:54;97040.75;;;13.52;74.56
16664;BME280;8445;51.270;9.434;2023-03-14T09:35:19;97047.22;;;13.42;75.03
16664;BME280;8445;51.270;9.434;2023-03-14T09:37:45;97046.19;;;13.22;75.02
16664;BME280;8445;51.270;9.434;2023-03-14T09:40:13;97049.91;;;13.27;75.96
16664;BME280;8445;51.270;9.434;2023-03-14T09:42:39;97033.94;;;13.20;75.34
16664;BME280;8445;51.270;9.434;2023-03-14T09:45:28;97034.22;;;13.32;73.71
16664;BME280;8445;51.270;9.434;2023-03-14T09:47:55;97032.59;;;13.60;76.96
16664;BME280;8445;51.270;9.434;2023-03-14T09:50:22;97044.94;;;13.68;76.63
16664;BME280;8445;51.270;9.434;2023-03-14T09:52:51;97044.69;;;13.98;75.37
16664;BME280;8445;51.270;9.434;2023-03-14T09:55:22;97030.53;;;14.32;74.49
16664;BME280;8445;51.270;9.434;2023-03-14T09:58:08;97041.00;;;14.41;71.34
16664;BME280;8445;51.270;9.434;2023-03-14T10:00:35;97040.94;;;14.20;72.92
16664;BME280;8445;51.270;9.434;2023-03-14T10:05:40;97036.78;;;14.11;73.04
16664;BME280;8445;51.270;9.434;2023-03-14T10:08:06;97032.00;;;13.93;72.74
16664;BME280;8445;51.270;9.434;2023-03-14T10:10:33;97034.59;;;13.79;73.08
16664;BME280;8445;51.270;9.434;2023-03-14T10:13:10;97017.78;;;13.72;73.33
16664;BME280;8445;51.270;9.434;2023-03-14T10:15:38;97025.59;;;13.81;73.73
16664;BME280;8445;51.270;9.434;2023-03-14T10:18:05;97024.19;;;13.85;73.88
16664;BME280;8445;51.270;9.434;2023-03-14T10:20:44;97033.16;;;13.77;72.35
16664;BME280;8445;51.270;9.434;2023-03-14T10:25:42;97029.59;;;13.98;73.89
16664;BME280;8445;51.270;9.434;2023-03-14T10:28:24;97034.06;;;14.40;71.58
16664;BME280;8445;51.270;9.434;2023-03-14T10:30:50;97033.94;;;14.61;72.65
16664;BME280;8445;51.270;9.434;2023-03-14T10:35:55;97037.25;;;14.77;71.48
16664;BME280;8445;51.270;9.434;2023-03-14T10:38:27;97040.75;;;14.77;72.70
16664;BME280;8445;51.270;9.434;2023-03-14T10:40:54;97033.13;;;14.67;72.54
16664;BME280;8445;51.270;9.434;2023-03-14T10:43:26;97034.84;;;14.89;73.94
16664;BME280;8445;51.270;9.434;2023-03-14T10:45:58;97027.69;;;14.96;72.78
16664;BME280;8445;51.270;9.434;2023-03-14T10:48:32;97029.28;;;14.84;71.49
16664;BME280;8445;51.270;9.434;2023-03-14T10:51:05;97036.13;;;14.51;70.64
16664;BME280;8445;51.270;9.434;2023-03-14T10:53:46;97035.09;;;14.45;71.41
16664;BME280;8445;51.270;9.434;2023-03-14T10:56:13;97031.94;;;14.77;73.36
16664;BME280;8445;51.270;9.434;2023-03-14T10:58:48;97034.88;;;15.22;74.76
16664;BME280;8445;51.270;9.434;2023-03-14T11:01:37;97036.47;;;15.64;71.98
16664;BME280;8445;51.270;9.434;2023-03-14T11:07:41;97029.31;;;16.43;68.78
16664;BME280;8445;51.270;9.434;2023-03-14T11:10:33;97023.75;;;16.84;67.55
16664;BME280;8445;51.270;9.434;2023-03-14T11:16:09;97013.41;;;17.26;72.61
16664;BME280;8445;51.270;9.434;2023-03-14T11:27:45;97007.47;;;18.12;72.49
16664;BME280;8445;51.270;9.434;2023-03-14T11:30:35;97011.06;;;17.81;65.33
16664;BME280;8445;51.270;9.434;2023-03-14T11:35:50;96998.31;;;17.39;70.94
16664;BME280;8445;51.270;9.434;2023-03-14T11:38:34;97014.97;;;17.09;70.11
16664;BME280;8445;51.270;9.434;2023-03-14T11:41:03;97023.75;;;16.84;69.25
16664;BME280;8445;51.270;9.434;2023-03-14T11:43:35;97030.06;;;16.57;69.27
16664;BME280;8445;51.270;9.434;2023-03-14T11:49:14;97031.78;;;15.52;68.24
16664;BME280;8445;51.270;9.434;2023-03-14T11:51:46;97032.41;;;15.14;68.31
16664;BME280;8445;51.270;9.434;2023-03-14T11:57:01;97043.28;;;14.44;70.21
16664;BME280;8445;51.270;9.434;2023-03-14T11:59:46;97039.13;;;14.28;71.19
16664;BME280;8445;51.270;9.434;2023-03-14T12:02:32;97050.16;;;14.25;71.10
16664;BME280;8445;51.270;9.434;2023-03-14T12:13:11;97055.72;;;13.38;71.02
16664;BME280;8445;51.270;9.434;2023-03-14T12:15:40;97099.28;;;13.22;70.65
16664;BME280;8445;51.270;9.434;2023-03-14T12:20:56;97147.41;;;12.15;70.09
16664;BME280;8445;51.270;9.434;2023-03-14T12:23:23;97162.56;;;11.45;71.47
16664;BME280;8445;51.270;9.434;2023-03-14T12:26:07;97176.09;;;11.03;73.32
16664;BME280;8445;51.270;9.434;2023-03-14T12:28:33;97164.56;;;10.56;72.99
16664;BME280;8445;51.270;9.434;2023-03-14T12:45:22;97233.19;;;10.16;73.07
16664;BME280;8445;51.270;9.434;2023-03-14T12:50:27;97242.41;;;10.20;72.43
16664;BME280;8445;51.270;9.434;2023-03-14T12:56:24;97270.16;;;10.33;71.95
16664;BME280;8445;51.270;9.434;2023-03-14T13:01:24;97293.28;;;10.47;71.81
16664;BME280;8445;51.270;9.434;2023-03-14T13:03:54;97295.56;;;10.67;72.48
16664;BME280;8445;51.270;9.434;2023-03-14T13:06:50;97314.72;;;10.61;68.62
16664;BME280;8445;51.270;9.434;2023-03-14T13:12:16;97334.06;;;9.95;68.88
16664;BME280;8445;51.270;9.434;2023-03-14T13:14:45;97338.41;;;9.53;67.82
16664;BME280;8445;51.270;9.434;2023-03-14T13:17:13;97368.38;;;9.36;68.77
16664;BME280;8445;51.270;9.434;2023-03-14T13:19:39;97383.72;;;9.05;67.87
16664;BME280;8445;51.270;9.434;2023-03-14T13:22:16;97398.63;;;8.62;68.24
16664;BME280;8445;51.270;9.434;2023-03-14T13:24:42;97423.75;;;8.38;68.75
16664;BME280;8445;51.270;9.434;2023-03-14T13:27:17;97461.69;;;8.09;69.17
16664;BME280;8445;51.270;9.434;2023-03-14T13:29:44;97481.41;;;7.95;68.75
16664;BME280;8445;51.270;9.434;2023-03-14T13:32:19;97506.53;;;7.62;68.66
16664;BME280;8445;51.270;9.434;2023-03-14T13:34:45;97531.19;;;7.51;69.14
16664;BME280;8445;51.270;9.434;2023-03-14T13:58:47;97675.84;;;5.89;70.46
16664;BME280;8445;51.270;9.434;2023-03-14T14:01:15;97693.53;;;5.87;70.39
16664;BME280;8445;51.270;9.434;2023-03-14T14:03:44;97704.81;;;6.20;71.04
16664;BME280;8445;51.270;9.434;2023-03-14T14:06:22;97691.31;;;6.34;71.08
16664;BME280;8445;51.270;9.434;2023-03-14T14:08:48;97699.41;;;6.52;71.27
16664;BME280;8445;51.270;9.434;2023-03-14T14:14:03;97712.91;;;6.79;68.78
16664;BME280;8445;51.270;9.434;2023-03-14T14:16:30;97718.88;;;6.81;68.70
16664;BME280;8445;51.270;9.434;2023-03-14T14:18:57;97715.00;;;6.85;68.34
16664;BME280;8445;51.270;9.434;2023-03-14T14:21:24;97733.41;;;6.85;67.54
16664;BME280;8445;51.270;9.434;2023-03-14T14:23:50;97726.41;;;7.05;68.30
16664;BME280;8445;51.270;9.434;2023-03-14T14:26:19;97734.59;;;7.22;68.30
16664;BME280;8445;51.270;9.434;2023-03-14T14:28:45;97748.84;;;7.19;67.33
16664;BME280;8445;51.270;9.434;2023-03-14T14:33:59;97764.34;;;7.22;67.97
16664;BME280;8445;51.270;9.434;2023-03-14T14:36:40;97767.13;;;7.40;67.65
16664;BME280;8445;51.270;9.434;2023-03-14T14:39:24;97776.03;;;7.49;67.36
16664;BME280;8445;51.270;9.434;2023-03-14T14:41:52;97788.75;;;7.54;67.38
16664;BME280;8445;51.270;9.434;2023-03-14T14:44:21;97802.78;;;7.74;67.18
16664;BME280;8445;51.270;9.434;2023-03-14T14:46:54;97803.88;;;7.71;67.07
16664;BME280;8445;51.270;9.434;2023-03-14T14:49:20;97823.28;;;7.70;66.87
16664;BME280;8445;51.270;9.434;2023-03-14T14:51:50;97828.41;;;7.72;67.35
16664;BME280;8445;51.270;9.434;2023-03-14T14:54:18;97840.59;;;7.73;67.17
16664;BME280;8445;51.270;9.434;2023-03-14T14:56:50;97855.41;;;7.74;66.18
16664;BME280;8445;51.270;9.434;2023-03-14T14:59:23;97855.16;;;7.87;67.03
16664;BME280;8445;51.270;9.434;2023-03-14T15:01:55;97866.13;;;8.12;67.57
16664;BME280;8445;51.270;9.434;2023-03-14T15:04:21;97867.50;;;8.36;67.51
16664;BME280;8445;51.270;9.434;2023-03-14T15:06:48;97865.41;;;8.59;67.26
16664;BME280;8445;51.270;9.434;2023-03-14T15:09:15;97864.16;;;8.43;66.43
16664;BME280;8445;51.270;9.434;2023-03-14T15:11:42;97882.78;;;8.52;66.95